Time;durP1;ratioP1;P1;durP2;ratioP2;P2;SDS_P1;SDS_P2;PMS_P1;PMS_P2;Temp;Humidity;BMP_temperature;BMP_pressure;BME280_temperature;BME280_humidity;BME280_pressure;Samples;Min_cycle;Max_cycle;Signal;HPM_P1;HPM_P2
2023/09/11 00:01:15;;;;;;;11.60;9.32;;;17.60;99.90;;;;;;4938525;29;20027;-85
2023/09/11 00:03:41;;;;;;;16.48;9.48;;;17.60;99.90;;;;;;4938280;29;20038;-85
2023/09/11 00:06:07;;;;;;;13.52;9.27;;;17.50;99.90;;;;;;4938154;29;20038;-85
2023/09/11 00:08:34;;;;;;;13.85;9.63;;;17.50;99.90;;;;;;4938527;29;20494;-85
2023/09/11 00:10:59;;;;;;;12.10;9.18;;;17.50;99.90;;;;;;4937475;29;20576;-85
2023/09/11 00:13:26;;;;;;;10.40;8.75;;;17.40;99.90;;;;;;4922047;29;20055;-85
2023/09/11 00:15:51;;;;;;;12.60;9.50;;;17.40;99.90;;;;;;4938549;29;20019;-86
2023/09/11 00:18:17;;;;;;;11.90;9.27;;;17.30;99.90;;;;;;4941089;29;21200;-86
2023/09/11 00:20:43;;;;;;;11.32;9.18;;;17.30;99.90;;;;;;4926654;29;20023;-86
2023/09/11 00:23:08;;;;;;;12.05;8.95;;;17.30;99.90;;;;;;4937917;29;20803;-86
2023/09/11 00:25:34;;;;;;;11.88;8.98;;;17.30;99.90;;;;;;4938871;29;20490;-86
2023/09/11 00:28:02;;;;;;;11.68;9.20;;;17.30;99.90;;;;;;4941547;29;20034;-86
2023/09/11 00:30:28;;;;;;;11.85;8.70;;;17.30;99.90;;;;;;4940547;29;20031;-86
2023/09/11 00:32:53;;;;;;;10.90;9.07;;;17.20;99.90;;;;;;4942980;29;20030;-86
2023/09/11 00:35:19;;;;;;;12.82;9.10;;;17.20;99.90;;;;;;4945768;29;20034;-86
2023/09/11 00:37:45;;;;;;;11.32;8.75;;;17.20;99.90;;;;;;4953318;28;20031;-84
2023/09/11 00:40:10;;;;;;;12.20;9.00;;;17.10;99.90;;;;;;4962868;28;20055;-84
2023/09/11 00:42:36;;;;;;;12.55;9.02;;;17.10;99.90;;;;;;4960160;28;20023;-85
2023/09/11 00:45:02;;;;;;;9.93;8.57;;;17.10;99.90;;;;;;4937293;29;20517;-86
2023/09/11 00:47:28;;;;;;;12.85;8.48;;;17.10;99.90;;;;;;4937177;29;20036;-87
2023/09/11 00:49:55;;;;;;;10.45;9.20;;;17.10;99.90;;;;;;4936716;29;20039;-86
2023/09/11 00:52:21;;;;;;;12.15;9.68;;;17.10;99.90;;;;;;4937839;29;20023;-86
2023/09/11 00:54:47;;;;;;;10.35;8.85;;;17.10;99.90;;;;;;4937134;29;20038;-85
2023/09/11 00:57:17;;;;;;;10.50;9.00;;;17.10;99.90;;;;;;4936183;29;20035;-86
2023/09/11 00:59:44;;;;;;;11.73;9.13;;;17.00;99.90;;;;;;4940023;29;20039;-86
2023/09/11 01:02:12;;;;;;;10.63;9.10;;;17.00;99.90;;;;;;4941249;29;20533;-86
2023/09/11 01:04:37;;;;;;;9.85;8.85;;;17.00;99.90;;;;;;4941713;29;20020;-85
2023/09/11 01:07:03;;;;;;;11.85;8.70;;;17.00;99.90;;;;;;4940897;29;20090;-86
2023/09/11 01:09:29;;;;;;;12.77;9.73;;;17.00;99.90;;;;;;4941144;29;20074;-86
2023/09/11 01:11:54;;;;;;;14.05;8.88;;;17.00;99.90;;;;;;4944524;29;20024;-86
2023/09/11 01:14:20;;;;;;;15.05;9.10;;;17.00;99.90;;;;;;4943424;29;20031;-85
2023/09/11 01:17:10;;;;;;;11.85;9.10;;;17.00;99.90;;;;;;4944150;29;20035;-85
2023/09/11 01:19:57;;;;;;;10.43;9.25;;;16.90;99.90;;;;;;4940416;29;20027;-85
2023/09/11 01:22:41;;;;;;;11.25;8.90;;;16.90;99.90;;;;;;4940610;29;20970;-86
2023/09/11 01:25:31;;;;;;;13.35;9.05;;;16.90;99.90;;;;;;4941624;29;20027;-86
2023/09/11 01:28:40;;;;;;;14.57;8.93;;;16.90;99.90;;;;;;4939983;29;20051;-85
2023/09/11 01:31:06;;;;;;;12.07;9.40;;;16.90;99.90;;;;;;4940748;29;20083;-86
2023/09/11 01:33:32;;;;;;;10.75;8.85;;;16.80;99.90;;;;;;4942509;29;20023;-86
2023/09/11 01:35:58;;;;;;;13.23;9.18;;;16.80;99.90;;;;;;4943838;29;20027;-86
2023/09/11 01:38:24;;;;;;;10.18;8.30;;;16.70;99.90;;;;;;4946907;29;20050;-86
2023/09/11 01:40:54;;;;;;;10.35;8.98;;;16.70;99.90;;;;;;4940495;29;20126;-85
2023/09/11 01:43:21;;;;;;;9.82;8.82;;;16.70;99.90;;;;;;4941410;29;20026;-86
2023/09/11 01:45:48;;;;;;;9.45;8.55;;;16.70;99.90;;;;;;4939901;29;20023;-86
2023/09/11 01:48:14;;;;;;;11.65;9.13;;;16.60;99.90;;;;;;4940188;29;20038;-86
2023/09/11 01:50:41;;;;;;;10.73;8.93;;;16.60;99.90;;;;;;4939839;29;20031;-86
2023/09/11 01:53:07;;;;;;;13.02;8.82;;;16.60;99.90;;;;;;4941144;29;20027;-86
2023/09/11 01:55:34;;;;;;;10.98;9.52;;;16.60;99.90;;;;;;4941027;29;20035;-86
2023/09/11 01:58:00;;;;;;;11.82;9.63;;;16.60;99.90;;;;;;4940760;29;20390;-86
2023/09/11 02:00:26;;;;;;;12.45;9.20;;;16.60;99.90;;;;;;4940938;29;20027;-86
2023/09/11 02:02:55;;;;;;;10.30;9.15;;;16.60;99.90;;;;;;4939709;29;20817;-86
2023/09/11 02:05:21;;;;;;;11.82;9.43;;;16.60;99.90;;;;;;4938518;29;20031;-86
2023/09/11 02:07:46;;;;;;;12.75;9.10;;;16.60;99.90;;;;;;4939789;29;20487;-85
2023/09/11 02:10:12;;;;;;;9.80;8.65;;;16.60;99.90;;;;;;4937554;29;20031;-85
2023/09/11 02:12:38;;;;;;;9.52;8.55;;;16.60;99.90;;;;;;4939629;29;20078;-86
2023/09/11 02:15:04;;;;;;;13.55;8.82;;;16.60;99.90;;;;;;4939385;29;20016;-85
2023/09/11 02:17:30;;;;;;;11.38;9.07;;;16.60;99.90;;;;;;4939199;29;20989;-85
2023/09/11 02:19:56;;;;;;;10.35;8.85;;;16.60;99.90;;;;;;4938687;29;20037;-85
2023/09/11 02:22:21;;;;;;;11.93;9.05;;;16.50;99.90;;;;;;4939015;29;20039;-85
2023/09/11 02:24:47;;;;;;;12.02;9.32;;;16.50;99.90;;;;;;4938520;29;20128;-86
2023/09/11 02:27:12;;;;;;;14.75;10.18;;;16.50;99.90;;;;;;4939852;29;20055;-86
2023/09/11 02:29:38;;;;;;;11.45;10.15;;;16.50;99.90;;;;;;4938585;29;20110;-86
2023/09/11 02:32:04;;;;;;;12.20;9.25;;;16.50;99.90;;;;;;4939769;29;20062;-86
2023/09/11 02:34:30;;;;;;;11.73;9.32;;;16.50;99.90;;;;;;4940710;29;20039;-86
2023/09/11 02:36:55;;;;;;;12.05;10.32;;;16.50;99.90;;;;;;4935150;29;20130;-86
2023/09/11 02:39:21;;;;;;;10.75;9.50;;;16.50;99.90;;;;;;4939110;29;20036;-86
2023/09/11 02:41:46;;;;;;;11.30;9.57;;;16.50;99.90;;;;;;4938362;29;20035;-85
2023/09/11 02:44:12;;;;;;;10.73;9.52;;;16.50;99.90;;;;;;4939256;29;20027;-86
2023/09/11 02:46:37;;;;;;;13.38;9.50;;;16.50;99.90;;;;;;4939233;29;20031;-85
2023/09/11 02:49:03;;;;;;;10.70;9.10;;;16.50;99.90;;;;;;4938741;29;20039;-86
2023/09/11 02:51:30;;;;;;;11.27;9.48;;;16.50;99.90;;;;;;4938376;29;20041;-86
2023/09/11 02:53:56;;;;;;;12.18;9.82;;;16.40;99.90;;;;;;4938791;29;21064;-86
2023/09/11 02:56:22;;;;;;;11.65;10.45;;;16.30;99.90;;;;;;4937962;29;20028;-86
2023/09/11 02:58:47;;;;;;;11.98;10.27;;;16.30;99.90;;;;;;4938434;29;20027;-84
2023/09/11 03:01:13;;;;;;;12.80;9.90;;;16.30;99.90;;;;;;4937246;29;20031;-83
2023/09/11 03:03:39;;;;;;;12.55;11.00;;;16.30;99.90;;;;;;4938560;29;20443;-85
2023/09/11 03:06:05;;;;;;;12.43;10.63;;;16.20;99.90;;;;;;4937613;29;20027;-85
2023/09/11 03:08:31;;;;;;;13.07;10.90;;;16.20;99.90;;;;;;4938009;29;20081;-85
2023/09/11 03:11:07;;;;;;;14.07;11.35;;;16.20;99.90;;;;;;4939098;29;20966;-86
2023/09/11 03:13:33;;;;;;;13.70;10.57;;;16.20;99.90;;;;;;4939119;29;20034;-84
2023/09/11 03:16:12;;;;;;;16.50;10.27;;;16.20;99.90;;;;;;4937861;29;20027;-85
2023/09/11 03:18:38;;;;;;;14.23;10.90;;;16.20;99.90;;;;;;4938689;29;20035;-85
2023/09/11 03:21:05;;;;;;;11.18;9.98;;;16.20;99.90;;;;;;4938222;29;20019;-85
2023/09/11 03:23:31;;;;;;;12.68;10.52;;;16.20;99.90;;;;;;4939224;29;20031;-85
2023/09/11 03:25:57;;;;;;;11.88;10.18;;;16.20;99.90;;;;;;4943549;29;20046;-85
2023/09/11 03:28:26;;;;;;;14.70;10.90;;;16.10;99.90;;;;;;4944466;29;20042;-85
2023/09/11 03:30:52;;;;;;;12.98;10.48;;;16.10;99.90;;;;;;4945715;29;20167;-85
2023/09/11 03:33:17;;;;;;;12.75;10.30;;;16.10;99.90;;;;;;4964010;28;20027;-84
2023/09/11 03:35:46;;;;;;;13.70;10.45;;;16.00;99.90;;;;;;4963485;28;20044;-84
2023/09/11 03:38:12;;;;;;;11.50;10.30;;;16.00;99.90;;;;;;4944600;28;20040;-85
2023/09/11 03:40:38;;;;;;;14.70;10.63;;;16.00;99.90;;;;;;4935762;29;20549;-84
2023/09/11 03:43:04;;;;;;;13.13;9.35;;;15.90;99.90;;;;;;4936822;29;20035;-84
2023/09/11 03:45:29;;;;;;;13.25;10.68;;;15.90;99.90;;;;;;4935967;29;20399;-84
2023/09/11 03:47:55;;;;;;;11.95;10.57;;;15.90;99.90;;;;;;4935532;29;20038;-85
2023/09/11 03:50:20;;;;;;;16.52;12.25;;;15.90;99.90;;;;;;4936296;29;20050;-85
2023/09/11 03:52:46;;;;;;;18.02;11.98;;;15.90;99.90;;;;;;4936080;29;20607;-84
2023/09/11 03:55:11;;;;;;;13.98;12.48;;;15.90;99.90;;;;;;4936100;29;20123;-84
2023/09/11 03:57:38;;;;;;;14.30;12.80;;;15.90;99.90;;;;;;4936497;29;20391;-85
2023/09/11 04:00:13;;;;;;;13.30;11.90;;;15.90;99.90;;;;;;4936124;29;20410;-85
2023/09/11 04:02:38;;;;;;;15.02;12.98;;;15.90;99.90;;;;;;4936518;29;20036;-85
2023/09/11 04:05:05;;;;;;;15.40;12.55;;;16.00;99.90;;;;;;4918434;29;20035;-85
2023/09/11 04:07:32;;;;;;;13.70;11.60;;;16.00;99.90;;;;;;4936990;29;20032;-85
2023/09/11 04:09:58;;;;;;;15.18;12.55;;;16.00;99.90;;;;;;4936158;29;20033;-85
2023/09/11 04:12:23;;;;;;;13.15;11.73;;;16.00;99.90;;;;;;4936849;29;20047;-85
2023/09/11 04:14:49;;;;;;;13.77;12.05;;;16.00;99.90;;;;;;4934784;29;20042;-85
2023/09/11 04:17:15;;;;;;;17.77;12.88;;;16.00;99.90;;;;;;4937198;29;20035;-85
2023/09/11 04:19:40;;;;;;;15.32;12.80;;;16.00;99.90;;;;;;4935530;29;20371;-85
2023/09/11 04:22:06;;;;;;;14.20;12.57;;;16.00;99.90;;;;;;4936168;29;20023;-85
2023/09/11 04:24:33;;;;;;;16.05;12.50;;;16.10;99.90;;;;;;4918260;29;20108;-84
2023/09/11 04:26:58;;;;;;;15.00;12.20;;;16.00;99.90;;;;;;4935144;29;20027;-85
2023/09/11 04:29:25;;;;;;;13.77;12.38;;;16.00;99.90;;;;;;4933651;29;20051;-84
2023/09/11 04:31:50;;;;;;;15.68;13.07;;;16.00;99.90;;;;;;4935616;29;20031;-85
2023/09/11 04:34:19;;;;;;;15.70;13.05;;;16.00;99.90;;;;;;4935493;29;20126;-84
2023/09/11 04:36:44;;;;;;;17.45;12.93;;;16.00;99.90;;;;;;4936151;29;20050;-85
2023/09/11 04:39:12;;;;;;;16.60;11.63;;;16.00;99.90;;;;;;4936121;29;20045;-85
2023/09/11 04:41:37;;;;;;;13.15;10.90;;;16.00;99.90;;;;;;4939089;29;20054;-85
2023/09/11 04:44:05;;;;;;;13.45;11.55;;;15.90;99.90;;;;;;4939971;29;20051;-85
2023/09/11 04:46:31;;;;;;;13.05;11.65;;;15.90;99.90;;;;;;4937917;29;20039;-85
2023/09/11 04:48:57;;;;;;;15.30;12.25;;;15.90;99.90;;;;;;4931987;28;21040;-85
2023/09/11 04:51:22;;;;;;;12.90;10.57;;;15.80;99.90;;;;;;4935754;28;20024;-85
2023/09/11 04:53:48;;;;;;;16.52;11.52;;;15.80;99.90;;;;;;4936019;29;20028;-85
2023/09/11 04:56:14;;;;;;;13.85;11.18;;;15.80;99.90;;;;;;4936321;29;20031;-85
2023/09/11 04:58:40;;;;;;;12.48;11.07;;;15.80;99.90;;;;;;4940119;29;20051;-85
2023/09/11 05:01:05;;;;;;;15.07;11.13;;;15.70;99.90;;;;;;4939687;29;20039;-85
2023/09/11 05:03:31;;;;;;;14.85;11.55;;;15.70;99.90;;;;;;4938599;29;20110;-85
2023/09/11 05:05:56;;;;;;;15.65;12.73;;;15.80;99.90;;;;;;4935390;29;20031;-85
2023/09/11 05:08:22;;;;;;;17.92;12.55;;;15.80;99.90;;;;;;4935161;28;20043;-85
2023/09/11 05:10:47;;;;;;;18.02;12.38;;;15.80;99.90;;;;;;4933718;29;20019;-85
2023/09/11 05:13:14;;;;;;;14.38;12.88;;;15.80;99.90;;;;;;4934937;29;20699;-85
2023/09/11 05:15:39;;;;;;;14.02;12.63;;;15.80;99.90;;;;;;4935449;29;20040;-85
2023/09/11 05:18:05;;;;;;;16.05;13.15;;;15.80;99.90;;;;;;4934840;29;20054;-85
2023/09/11 05:20:31;;;;;;;14.35;12.77;;;15.90;99.90;;;;;;4911738;29;20027;-85
2023/09/11 05:22:57;;;;;;;17.00;13.15;;;15.90;99.90;;;;;;4925487;29;20032;-84
2023/09/11 05:25:23;;;;;;;15.48;12.75;;;15.90;99.90;;;;;;4924443;29;20105;-85
2023/09/11 05:27:49;;;;;;;15.00;13.40;;;16.00;99.90;;;;;;4925893;29;20031;-84
2023/09/11 05:30:15;;;;;;;16.35;12.82;;;16.00;99.90;;;;;;4921475;29;20066;-85
2023/09/11 05:32:40;;;;;;;15.13;13.52;;;16.00;99.90;;;;;;4925248;29;20110;-84
2023/09/11 05:35:07;;;;;;;14.45;12.40;;;16.10;99.90;;;;;;4924074;29;20115;-84
2023/09/11 05:37:32;;;;;;;14.05;12.57;;;16.20;99.90;;;;;;4924647;29;20122;-85
2023/09/11 05:40:00;;;;;;;16.40;12.63;;;16.20;99.90;;;;;;4920935;29;20070;-85
2023/09/11 05:42:26;;;;;;;16.20;12.52;;;16.30;99.90;;;;;;4924705;28;20505;-85
2023/09/11 05:44:52;;;;;;;13.05;11.65;;;16.40;99.90;;;;;;4925915;29;20031;-85
2023/09/11 05:47:18;;;;;;;13.48;11.65;;;16.50;99.90;;;;;;4928856;29;20154;-85
2023/09/11 05:49:43;;;;;;;20.92;11.73;;;16.60;99.90;;;;;;4925498;29;20027;-85
2023/09/11 05:52:09;;;;;;;12.30;11.02;;;16.70;99.90;;;;;;4927656;29;20039;-85
2023/09/11 05:54:35;;;;;;;16.02;12.18;;;16.70;99.90;;;;;;4928237;29;20027;-85
2023/09/11 05:57:05;;;;;;;13.43;11.27;;;16.80;99.90;;;;;;4928712;28;20031;-85
2023/09/11 05:59:31;;;;;;;12.65;11.23;;;16.90;99.90;;;;;;4925075;29;20024;-85
2023/09/11 06:01:56;;;;;;;13.40;11.85;;;17.00;99.90;;;;;;4928678;29;21842;-84
2023/09/11 06:04:22;;;;;;;16.70;12.07;;;17.10;99.90;;;;;;4927470;29;20095;-84
2023/09/11 06:06:48;;;;;;;14.07;12.02;;;17.10;99.90;;;;;;4928607;29;20077;-85
2023/09/11 06:09:13;;;;;;;14.82;12.52;;;17.20;99.90;;;;;;4925646;29;20573;-86
2023/09/11 06:11:39;;;;;;;13.88;12.25;;;17.30;99.90;;;;;;4927285;29;20042;-85
2023/09/11 06:14:07;;;;;;;14.20;11.27;;;17.40;99.90;;;;;;4928115;29;21104;-85
2023/09/11 06:16:32;;;;;;;17.70;12.40;;;17.50;99.90;;;;;;4928857;29;20043;-85
2023/09/11 06:18:59;;;;;;;13.52;12.13;;;17.60;99.90;;;;;;4930475;29;20027;-85
2023/09/11 06:21:24;;;;;;;14.48;12.20;;;17.70;99.90;;;;;;4932375;29;20027;-84
2023/09/11 06:23:50;;;;;;;14.80;12.32;;;17.80;99.90;;;;;;4936914;29;20034;-85
2023/09/11 06:26:16;;;;;;;14.98;13.18;;;17.90;99.90;;;;;;4940031;28;20039;-84
2023/09/11 06:28:42;;;;;;;14.55;12.38;;;18.00;99.90;;;;;;4956434;28;20855;-84
2023/09/11 06:31:08;;;;;;;15.93;12.48;;;18.10;99.90;;;;;;4955986;28;20027;-84
2023/09/11 06:33:34;;;;;;;16.20;12.50;;;18.20;99.90;;;;;;4932458;28;20032;-85
2023/09/11 06:36:00;;;;;;;19.23;12.93;;;18.30;99.90;;;;;;4927799;29;20027;-84
2023/09/11 06:38:25;;;;;;;14.80;12.30;;;18.40;99.90;;;;;;4926463;29;20522;-85
2023/09/11 06:40:51;;;;;;;14.55;12.30;;;18.50;99.90;;;;;;4924989;29;20035;-86
2023/09/11 06:43:16;;;;;;;17.42;11.85;;;18.70;99.90;;;;;;4927184;29;20032;-86
2023/09/11 06:45:42;;;;;;;14.48;12.00;;;18.80;99.90;;;;;;4927116;29;20714;-85
2023/09/11 06:48:11;;;;;;;17.05;12.25;;;18.90;99.90;;;;;;4927473;29;20103;-85
2023/09/11 06:50:37;;;;;;;14.93;11.18;;;19.00;99.90;;;;;;4925346;29;20829;-85
2023/09/11 06:53:03;;;;;;;14.38;11.13;;;19.10;99.90;;;;;;4927483;29;20043;-85
2023/09/11 06:55:28;;;;;;;14.65;12.50;;;19.20;99.90;;;;;;4926830;29;20586;-85
2023/09/11 06:57:56;;;;;;;16.30;12.30;;;19.30;99.90;;;;;;4926516;28;20038;-85
2023/09/11 07:00:22;;;;;;;14.07;12.57;;;19.50;99.90;;;;;;4913711;29;20031;-85
2023/09/11 07:02:49;;;;;;;15.88;12.55;;;19.60;99.90;;;;;;4927044;29;20127;-85
2023/09/11 07:05:20;;;;;;;16.05;12.95;;;19.60;99.90;;;;;;4927189;29;20602;-85
2023/09/11 07:07:46;;;;;;;15.43;12.90;;;19.80;99.90;;;;;;4927347;29;20039;-85
2023/09/11 07:10:14;;;;;;;14.70;12.93;;;19.80;99.90;;;;;;4924246;29;20023;-85
2023/09/11 07:12:43;;;;;;;15.43;11.90;;;19.90;99.90;;;;;;4926778;28;20027;-84
2023/09/11 07:15:09;;;;;;;15.60;12.45;;;20.00;99.90;;;;;;4926345;29;20120;-85
2023/09/11 07:17:35;;;;;;;15.57;12.20;;;20.10;99.90;;;;;;4912597;29;20046;-86
2023/09/11 07:20:05;;;;;;;14.07;11.70;;;20.20;99.90;;;;;;4924948;29;20132;-86
2023/09/11 07:22:31;;;;;;;15.10;12.02;;;20.20;99.90;;;;;;4927724;29;20047;-85
2023/09/11 07:24:57;;;;;;;12.85;11.30;;;20.30;99.90;;;;;;4927621;29;20205;-86
2023/09/11 07:27:26;;;;;;;13.35;11.90;;;20.50;99.90;;;;;;4926860;29;20714;-85
2023/09/11 07:29:51;;;;;;;13.05;10.73;;;20.60;99.90;;;;;;4921281;29;20754;-85
2023/09/11 07:32:18;;;;;;;13.55;10.68;;;20.70;99.90;;;;;;4927194;29;20423;-85
2023/09/11 07:34:43;;;;;;;18.25;11.77;;;20.90;99.90;;;;;;4927698;29;20590;-85
2023/09/11 07:37:09;;;;;;;12.80;10.57;;;21.00;99.90;;;;;;4925375;29;20023;-84
2023/09/11 07:39:34;;;;;;;12.05;10.02;;;21.10;99.90;;;;;;4924558;29;21666;-85
2023/09/11 07:42:01;;;;;;;12.20;10.55;;;21.20;99.90;;;;;;4927124;29;20036;-85
2023/09/11 07:44:27;;;;;;;11.90;10.43;;;21.30;99.90;;;;;;4925998;29;20027;-86
2023/09/11 07:46:53;;;;;;;12.45;10.20;;;21.40;99.90;;;;;;4926683;29;20047;-85
2023/09/11 07:49:18;;;;;;;14.27;10.45;;;21.60;99.90;;;;;;4924046;29;20032;-85
2023/09/11 07:51:45;;;;;;;14.73;10.77;;;21.60;99.90;;;;;;4927555;29;20039;-85
2023/09/11 07:54:11;;;;;;;12.95;9.85;;;21.80;99.90;;;;;;4927245;29;20031;-86
2023/09/11 07:56:37;;;;;;;14.45;9.90;;;21.90;99.90;;;;;;4927073;29;20038;-85
2023/09/11 07:59:04;;;;;;;13.77;10.35;;;22.00;99.90;;;;;;4924717;29;20024;-85
2023/09/11 08:01:30;;;;;;;15.10;10.10;;;22.10;99.90;;;;;;4925207;29;21457;-84
2023/09/11 08:03:56;;;;;;;12.95;10.00;;;22.30;99.90;;;;;;4927165;29;20177;-85
2023/09/11 08:06:22;;;;;;;11.18;9.52;;;22.40;99.90;;;;;;4926322;29;21007;-84
2023/09/11 08:08:48;;;;;;;11.35;9.77;;;22.50;99.90;;;;;;4924124;28;20467;-85
2023/09/11 08:11:15;;;;;;;10.65;9.45;;;22.70;99.90;;;;;;4925763;29;20027;-85
2023/09/11 08:13:41;;;;;;;10.30;9.13;;;22.80;99.90;;;;;;4927137;29;20578;-85
2023/09/11 08:16:07;;;;;;;13.07;9.40;;;22.90;99.90;;;;;;4926451;29;20035;-85
2023/09/11 08:18:34;;;;;;;12.35;9.13;;;23.00;99.90;;;;;;4925327;29;20031;-85
2023/09/11 08:21:01;;;;;;;12.25;9.20;;;23.10;99.90;;;;;;4924421;29;20398;-85
2023/09/11 08:23:26;;;;;;;12.32;9.45;;;23.20;99.90;;;;;;4928190;29;20055;-86
2023/09/11 08:25:59;;;;;;;16.00;9.45;;;23.30;99.90;;;;;;4926172;29;20043;-86
2023/09/11 08:28:26;;;;;;;10.55;8.85;;;23.40;99.90;;;;;;4925552;29;20030;-85
2023/09/11 08:30:52;;;;;;;10.70;9.55;;;23.40;99.90;;;;;;4925826;29;20039;-85
2023/09/11 08:33:18;;;;;;;10.90;9.18;;;23.60;99.90;;;;;;4926954;29;20094;-84
2023/09/11 08:35:43;;;;;;;9.52;8.52;;;23.60;99.90;;;;;;4926876;29;20034;-85
2023/09/11 08:38:09;;;;;;;10.43;8.50;;;23.70;99.90;;;;;;4927404;29;20741;-85
2023/09/11 08:40:35;;;;;;;9.63;8.65;;;23.80;99.90;;;;;;4925622;29;20039;-86
2023/09/11 08:43:02;;;;;;;12.43;8.88;;;23.90;99.90;;;;;;4930960;29;20035;-84
2023/09/11 08:45:28;;;;;;;10.73;8.13;;;24.10;99.90;;;;;;4931353;29;20102;-85
2023/09/11 08:47:58;;;;;;;11.88;8.50;;;24.10;99.90;;;;;;4931660;29;20031;-85
2023/09/11 08:50:39;;;;;;;11.13;8.77;;;24.30;99.90;;;;;;4927441;29;20046;-85
2023/09/11 08:53:04;;;;;;;9.85;8.00;;;24.60;99.90;;;;;;4929167;29;21629;-86
2023/09/11 08:55:33;;;;;;;9.27;8.23;;;24.80;99.90;;;;;;4929131;29;20031;-86
2023/09/11 08:58:05;;;;;;;8.70;7.80;;;24.90;99.90;;;;;;4926892;29;20050;-85
2023/09/11 09:00:32;;;;;;;10.00;8.27;;;25.00;99.90;;;;;;4925557;29;21555;-85
2023/09/11 09:02:59;;;;;;;12.40;8.65;;;25.20;99.90;;;;;;4928742;28;20047;-84
2023/09/11 09:05:26;;;;;;;8.43;7.53;;;25.40;99.90;;;;;;4928507;29;20047;-83
2023/09/11 09:07:53;;;;;;;8.85;7.80;;;25.60;99.90;;;;;;4929662;29;20411;-83
2023/09/11 09:10:19;;;;;;;11.52;8.05;;;25.70;99.90;;;;;;4926238;29;20035;-84
2023/09/11 09:12:45;;;;;;;12.38;8.20;;;25.80;99.90;;;;;;4928384;29;20032;-84
2023/09/11 09:15:12;;;;;;;12.85;8.45;;;25.90;99.90;;;;;;4934093;29;20442;-83
2023/09/11 09:17:38;;;;;;;9.55;7.55;;;26.00;99.90;;;;;;4941966;28;20039;-84
2023/09/11 09:20:04;;;;;;;9.35;7.55;;;26.20;99.90;;;;;;4937559;28;20078;-83
2023/09/11 09:22:31;;;;;;;11.50;7.60;;;26.40;99.90;;;;;;4959470;28;20304;-83
2023/09/11 09:24:56;;;;;;;8.38;7.30;;;26.60;99.90;;;;;;4944071;28;20035;-83
2023/09/11 09:27:30;;;;;;;9.63;7.55;;;26.90;99.90;;;;;;4934820;29;20043;-84
2023/09/11 09:29:56;;;;;;;9.63;6.90;;;27.10;99.90;;;;;;4926070;29;20035;-83
2023/09/11 09:32:22;;;;;;;9.60;7.90;;;27.40;99.90;;;;;;4928818;29;20063;-84
2023/09/11 09:34:51;;;;;;;8.98;7.57;;;27.50;99.90;;;;;;4928745;28;20035;-84
2023/09/11 09:37:18;;;;;;;9.43;7.03;;;27.70;99.90;;;;;;4929063;29;20040;-84
2023/09/11 09:39:48;;;;;;;8.77;7.53;;;27.80;99.90;;;;;;4925942;28;20122;-83
2023/09/11 09:42:14;;;;;;;11.90;7.10;;;27.90;99.90;;;;;;4929725;29;20038;-85
2023/09/11 09:44:42;;;;;;;8.18;7.05;;;28.00;99.90;;;;;;4927666;29;20034;-84
2023/09/11 09:47:12;;;;;;;9.18;7.38;;;28.00;99.90;;;;;;4927235;29;20118;-84
2023/09/11 09:49:47;;;;;;;10.45;6.47;;;28.00;99.90;;;;;;4924817;29;20243;-85
2023/09/11 09:52:14;;;;;;;8.75;7.00;;;28.10;99.90;;;;;;4927126;29;20058;-84
2023/09/11 09:54:51;;;;;;;11.68;6.93;;;28.20;99.90;;;;;;4926813;29;20031;-84
2023/09/11 09:57:19;;;;;;;7.50;6.35;;;28.40;99.90;;;;;;4915050;29;20082;-84
2023/09/11 09:59:57;;;;;;;9.70;6.07;;;28.40;99.90;;;;;;4923876;29;20034;-84
2023/09/11 10:02:34;;;;;;;8.18;6.00;;;28.60;99.90;;;;;;4926898;29;20046;-84
2023/09/11 10:05:07;;;;;;;9.60;6.40;;;28.60;99.90;;;;;;4935156;29;20438;-84
2023/09/11 10:07:40;;;;;;;7.90;6.75;;;28.70;99.90;;;;;;4938471;29;20569;-85
2023/09/11 10:10:26;;;;;;;10.20;6.95;;;28.90;99.90;;;;;;4937116;29;20047;-84
2023/09/11 10:13:03;;;;;;;8.07;6.55;;;29.00;99.90;;;;;;4938008;29;20044;-85
2023/09/11 10:15:30;;;;;;;11.27;6.65;;;29.20;99.90;;;;;;4936442;29;20107;-85
2023/09/11 10:17:57;;;;;;;8.23;6.60;;;29.30;99.90;;;;;;4937710;29;20031;-84
2023/09/11 10:20:24;;;;;;;7.90;6.28;;;29.30;99.90;;;;;;4941043;28;20024;-84
2023/09/11 10:22:54;;;;;;;8.05;6.40;;;29.50;99.90;;;;;;4937495;29;20031;-84
2023/09/11 10:25:21;;;;;;;9.27;6.28;;;29.60;99.90;;;;;;4937160;29;20027;-84
2023/09/11 10:27:50;;;;;;;8.48;6.20;;;29.80;99.90;;;;;;4937455;29;20034;-84
2023/09/11 10:30:22;;;;;;;7.22;6.10;;;29.80;99.90;;;;;;4936327;29;20020;-84
2023/09/11 10:32:57;;;;;;;7.20;6.32;;;29.80;99.90;;;;;;4937139;29;20028;-84
2023/09/11 10:35:23;;;;;;;7.47;6.68;;;29.80;99.90;;;;;;4938141;29;20463;-84
2023/09/11 10:37:56;;;;;;;6.05;5.43;;;29.90;99.90;;;;;;4935531;29;20502;-83
2023/09/11 10:40:22;;;;;;;9.77;6.25;;;29.90;99.90;;;;;;4937231;29;20035;-84
2023/09/11 10:42:47;;;;;;;7.75;5.93;;;29.90;99.90;;;;;;4937168;29;20034;-85
2023/09/11 10:45:31;;;;;;;7.75;5.70;;;30.10;99.90;;;;;;4936729;29;20446;-84
2023/09/11 10:47:58;;;;;;;8.52;5.82;;;30.20;99.90;;;;;;4929872;29;20031;-83
2023/09/11 10:50:43;;;;;;;7.88;5.55;;;30.20;99.90;;;;;;4926267;29;20035;-84
2023/09/11 10:53:09;;;;;;;8.45;6.07;;;30.20;99.90;;;;;;4926671;29;20031;-84
2023/09/11 10:55:35;;;;;;;7.82;5.50;;;30.20;99.90;;;;;;4926896;29;20061;-85
2023/09/11 10:58:05;;;;;;;8.13;5.63;;;30.20;99.90;;;;;;4925004;29;20042;-84
2023/09/11 11:00:36;;;;;;;7.50;5.97;;;30.20;99.90;;;;;;4930898;29;20023;-84
2023/09/11 11:03:02;;;;;;;8.20;5.45;;;30.30;99.90;;;;;;4926971;29;20047;-84
2023/09/11 11:05:27;;;;;;;10.85;5.85;;;30.40;99.90;;;;;;4925834;29;20024;-84
2023/09/11 11:07:53;;;;;;;8.98;5.45;;;30.60;99.90;;;;;;4926366;29;20035;-84
2023/09/11 11:10:19;;;;;;;5.88;5.15;;;30.70;99.90;;;;;;4926035;29;20498;-83
2023/09/11 11:12:46;;;;;;;7.25;5.10;;;30.70;99.90;;;;;;4926396;29;20035;-84
2023/09/11 11:15:24;;;;;;;9.23;5.50;;;30.90;99.90;;;;;;4925472;28;20031;-84
2023/09/11 11:18:24;;;;;;;12.57;5.75;;;31.00;99.90;;;;;;4924499;29;20051;-83
2023/09/11 11:21:07;;;;;;;5.82;5.10;;;31.20;99.90;;;;;;4925905;29;20027;-85
2023/09/11 11:23:53;;;;;;;10.60;5.28;;;31.30;99.90;;;;;;4925128;29;20031;-84
2023/09/11 11:26:19;;;;;;;7.47;5.25;;;31.30;99.90;;;;;;4926231;29;21100;-85
2023/09/11 11:28:45;;;;;;;5.72;5.13;;;31.40;99.90;;;;;;4923249;29;20054;-85
2023/09/11 11:31:18;;;;;;;7.43;5.50;;;31.60;99.90;;;;;;4924099;29;20046;-85
2023/09/11 11:33:46;;;;;;;5.43;4.60;;;31.80;99.90;;;;;;4927010;29;20027;-84
2023/09/11 11:36:12;;;;;;;9.70;5.03;;;32.10;99.90;;;;;;4926110;29;20035;-85
2023/09/11 11:38:42;;;;;;;5.10;4.60;;;32.20;99.90;;;;;;4922660;29;21296;-84
2023/09/11 11:41:11;;;;;;;5.70;4.43;;;32.20;99.90;;;;;;4923652;29;20062;-84
2023/09/11 11:43:36;;;;;;;7.05;5.13;;;32.10;99.90;;;;;;4925333;29;20024;-83
2023/09/11 11:46:06;;;;;;;5.22;4.25;;;32.20;99.90;;;;;;4925296;29;20097;-83
2023/09/11 11:48:33;;;;;;;7.10;5.05;;;32.00;99.90;;;;;;4925058;29;20058;-84
2023/09/11 11:50:58;;;;;;;6.78;4.72;;;32.10;99.90;;;;;;4926502;29;20118;-84
2023/09/11 11:53:25;;;;;;;8.48;4.80;;;32.20;99.90;;;;;;4926817;29;21447;-84
2023/09/11 11:55:57;;;;;;;6.07;4.97;;;32.10;99.90;;;;;;4927545;29;20515;-83
2023/09/11 11:58:27;;;;;;;7.45;5.20;;;32.20;99.90;;;;;;4925108;29;20039;-85
2023/09/11 12:01:01;;;;;;;7.43;5.30;;;32.20;99.90;;;;;;4914508;29;20019;-85
2023/09/11 12:03:45;;;;;;;7.67;4.93;;;32.30;99.90;;;;;;4926038;29;20050;-84
2023/09/11 12:06:11;;;;;;;;;;;32.50;99.90;;;;;;4921658;29;20369;-84
2023/09/11 12:08:37;;;;;;;6.53;4.93;;;32.70;99.90;;;;;;4924961;29;20510;-82
2023/09/11 12:11:05;;;;;;;7.10;5.05;;;32.80;99.90;;;;;;4930261;29;20035;-84
2023/09/11 12:13:32;;;;;;;8.57;5.07;;;32.90;99.90;;;;;;4934784;29;20055;-84
2023/09/11 12:15:59;;;;;;;5.57;5.07;;;32.90;99.90;;;;;;4951221;28;20023;-83
2023/09/11 12:18:29;;;;;;;7.05;5.03;;;32.80;99.90;;;;;;4952999;28;20039;-83
2023/09/11 12:21:03;;;;;;;6.20;4.93;;;32.60;99.90;;;;;;4948072;29;20035;-85
2023/09/11 12:23:29;;;;;;;8.10;5.07;;;32.80;99.90;;;;;;4932449;29;20089;-85
2023/09/11 12:25:55;;;;;;;5.20;4.65;;;32.80;99.90;;;;;;4926294;29;20263;-84
2023/09/11 12:28:22;;;;;;;7.03;5.05;;;32.80;99.90;;;;;;4925522;29;20023;-83
2023/09/11 12:30:48;;;;;;;5.82;4.80;;;32.70;99.90;;;;;;4930413;29;20032;-84
2023/09/11 12:33:20;;;;;;;6.43;4.60;;;32.70;99.90;;;;;;4930086;29;20805;-85
2023/09/11 12:35:46;;;;;;;4.65;4.10;;;32.80;99.90;;;;;;4925371;29;20132;-85
2023/09/11 12:38:13;;;;;;;6.05;4.63;;;32.90;99.90;;;;;;4922462;29;20066;-84